createdAt,value
2023-05-17T00:04:04.597Z,21.02
2023-05-17T00:09:07.721Z,15.40
2023-05-17T00:14:10.431Z,18.48
2023-05-17T00:19:14.975Z,20.65
2023-05-17T00:24:18.967Z,17.38
2023-05-17T00:29:21.817Z,20.00
2023-05-17T00:34:25.985Z,19.47
2023-05-17T00:39:28.693Z,22.55
2023-05-17T00:44:32.087Z,20.07
2023-05-17T00:49:40.107Z,20.00
2023-05-17T00:54:43.931Z,21.55
2023-05-17T00:59:48.739Z,20.95
2023-05-17T01:04:53.626Z,21.40
2023-05-17T01:09:59.268Z,16.92
2023-05-17T01:15:13.116Z,20.45
2023-05-17T01:20:26.244Z,17.33
2023-05-17T01:25:42.154Z,20.50
2023-05-17T01:30:48.522Z,17.67
2023-05-17T01:35:54.218Z,18.30
2023-05-17T01:41:06.333Z,20.67
2023-05-17T01:46:16.919Z,24.42
2023-05-17T01:51:22.087Z,18.60
2023-05-17T01:56:29.873Z,23.95
2023-05-17T02:01:36.209Z,15.20
2023-05-17T02:06:39.136Z,23.88
2023-05-17T02:11:42.202Z,18.70
2023-05-17T02:16:47.569Z,24.08
2023-05-17T02:21:50.329Z,19.13
2023-05-17T02:26:53.243Z,19.37
2023-05-17T02:31:58.526Z,20.65
2023-05-17T02:37:01.553Z,20.40
2023-05-17T02:42:05.817Z,23.90
2023-05-17T02:47:10.097Z,22.45
2023-05-17T02:52:12.790Z,25.30
2023-05-17T02:57:15.611Z,16.80
2023-05-17T03:02:19.979Z,19.10
2023-05-17T03:07:22.793Z,26.23
2023-05-17T03:12:27.859Z,19.77
2023-05-17T03:17:33.573Z,24.38
2023-05-17T03:22:36.507Z,27.95
2023-05-17T03:27:39.457Z,19.50
2023-05-17T03:32:45.109Z,17.08
2023-05-17T03:37:48.231Z,18.10
2023-05-17T03:42:51.982Z,15.23
2023-05-17T03:48:00.341Z,16.25
2023-05-17T03:53:04.363Z,19.90
2023-05-17T03:58:08.437Z,15.23
2023-05-17T04:03:13.086Z,19.00
2023-05-17T04:08:15.825Z,17.58
2023-05-17T04:13:19.645Z,23.60
2023-05-17T04:18:24.814Z,21.85
2023-05-17T04:23:30.158Z,19.92
2023-05-17T04:28:35.197Z,25.98
2023-05-17T04:33:39.512Z,19.77
2023-05-17T04:38:42.430Z,22.02
2023-05-17T04:43:47.323Z,21.53
2023-05-17T04:48:51.680Z,17.20
2023-05-17T04:53:55.234Z,18.55
2023-05-17T04:58:59.232Z,18.60
2023-05-17T05:04:06.972Z,17.65
2023-05-17T05:09:10.059Z,16.30
2023-05-17T05:14:12.747Z,22.35
2023-05-17T05:19:18.277Z,21.17
2023-05-17T05:24:23.041Z,17.90
2023-05-17T05:29:26.052Z,15.10
2023-05-17T05:34:31.735Z,11.98
2023-05-17T05:39:34.512Z,12.57
2023-05-17T05:44:38.333Z,11.75
2023-05-17T05:49:42.636Z,12.40
2023-05-17T05:54:45.735Z,10.30
2023-05-17T06:04:56.719Z,7.53
2023-05-17T06:10:02.682Z,20.50
2023-05-17T06:15:07.451Z,7.03
2023-05-17T06:20:12.606Z,6.03
2023-05-17T06:25:16.897Z,8.55
2023-05-17T06:30:19.734Z,7.93
2023-05-17T06:35:23.798Z,6.05
2023-05-17T06:40:26.578Z,6.18
2023-05-17T06:45:29.450Z,6.03
2023-05-17T06:50:33.536Z,5.45
2023-05-17T06:55:36.247Z,9.75
2023-05-17T07:00:38.939Z,7.22
2023-05-17T07:05:42.969Z,6.55
2023-05-17T07:10:45.779Z,8.75
2023-05-17T07:20:52.280Z,5.50
2023-05-17T07:25:55.001Z,6.65
2023-05-17T07:30:57.621Z,5.05
2023-05-17T07:36:01.579Z,4.03
2023-05-17T07:41:09.422Z,7.63
2023-05-17T07:46:12.155Z,6.13
2023-05-17T07:51:16.346Z,8.90
2023-05-17T07:56:19.065Z,5.70
2023-05-17T08:01:23.183Z,4.85
2023-05-17T08:06:27.325Z,7.75
2023-05-17T08:11:30.021Z,4.93
2023-05-17T08:16:32.674Z,5.68
2023-05-17T08:21:37.297Z,4.05
2023-05-17T08:26:40.189Z,4.72
2023-05-17T08:31:42.854Z,10.23
2023-05-17T08:36:47.625Z,8.18
2023-05-17T08:41:50.608Z,7.15
2023-05-17T08:46:54.693Z,7.00
2023-05-17T08:52:01.710Z,5.95
2023-05-17T08:57:06.749Z,4.82
2023-05-17T09:02:11.262Z,2.72
2023-05-17T09:07:17.290Z,5.85
2023-05-17T09:12:25.401Z,2.65
2023-05-17T09:17:28.600Z,6.78
2023-05-17T09:22:32.822Z,5.53
2023-05-17T09:27:35.481Z,4.80
2023-05-17T09:37:49.300Z,5.35
2023-05-17T09:42:52.194Z,6.40
2023-05-17T09:53:00.071Z,6.95
2023-05-17T09:58:04.990Z,7.90
2023-05-17T10:03:10.148Z,6.05
2023-05-17T10:08:16.028Z,14.75
2023-05-17T10:13:24.834Z,4.60
2023-05-17T10:18:29.192Z,9.00
2023-05-17T10:23:35.466Z,6.20
2023-05-17T10:28:38.549Z,2.60
2023-05-17T10:33:42.806Z,7.57
2023-05-17T10:38:47.254Z,7.60
2023-05-17T10:43:50.664Z,6.22
2023-05-17T10:48:54.388Z,7.90
2023-05-17T10:54:12.745Z,8.07
2023-05-17T10:59:17.003Z,7.00
2023-05-17T11:04:25.797Z,5.55
2023-05-17T11:09:33.387Z,6.43
2023-05-17T11:14:49.240Z,7.80
2023-05-17T11:20:28.961Z,6.15
2023-05-17T11:25:35.750Z,6.78
2023-05-17T11:30:43.536Z,9.73
2023-05-17T11:35:50.028Z,4.72
2023-05-17T11:40:58.890Z,8.00
2023-05-17T11:46:02.464Z,4.72
2023-05-17T11:51:05.920Z,7.90
2023-05-17T11:56:11.538Z,7.50
2023-05-17T12:01:14.369Z,7.03
2023-05-17T12:16:26.500Z,4.30
2023-05-17T12:21:29.230Z,6.63
2023-05-17T12:26:33.334Z,8.98
2023-05-17T12:31:39.276Z,5.97
2023-05-17T12:36:42.687Z,8.63
2023-05-17T12:41:48.556Z,5.47
2023-05-17T12:46:53.876Z,5.85
2023-05-17T12:51:56.863Z,6.80
2023-05-17T12:57:12.547Z,6.80
2023-05-17T13:02:16.806Z,7.32
2023-05-17T13:07:24.812Z,7.07
2023-05-17T13:12:28.915Z,8.63
2023-05-17T13:17:36.961Z,7.10
2023-05-17T13:22:42.154Z,5.57
2023-05-17T13:27:48.609Z,8.70
2023-05-17T13:32:51.908Z,6.10
2023-05-17T13:37:54.797Z,8.40
2023-05-17T13:48:01.511Z,7.40
2023-05-17T13:58:08.833Z,10.37
2023-05-17T14:03:13.091Z,9.68
2023-05-17T14:08:16.684Z,7.80
2023-05-17T14:13:20.898Z,7.70
2023-05-17T14:18:23.668Z,6.85
2023-05-17T14:28:30.209Z,8.55
2023-05-17T14:33:32.907Z,8.55
2023-05-17T14:38:35.615Z,5.90
2023-05-17T14:43:39.706Z,5.72
2023-05-17T14:48:42.368Z,7.15
2023-05-17T14:53:45.133Z,6.90
2023-05-17T14:58:49.344Z,8.65
2023-05-17T15:03:52.056Z,8.07
2023-05-17T15:13:59.033Z,4.97
2023-05-17T15:19:01.795Z,6.88
2023-05-17T15:24:05.027Z,3.55
2023-05-17T15:29:09.028Z,4.43
2023-05-17T15:34:11.832Z,6.35
2023-05-17T15:39:15.099Z,4.80
2023-05-17T15:44:19.397Z,5.22
2023-05-17T15:49:23.065Z,11.55
2023-05-17T15:54:25.814Z,5.43
2023-05-17T16:04:33.398Z,5.50
2023-05-17T16:09:36.169Z,6.05
2023-05-17T16:14:40.888Z,8.43
2023-05-17T16:19:43.719Z,6.25
2023-05-17T16:24:46.414Z,6.47
2023-05-17T16:29:50.357Z,13.02
2023-05-17T16:34:52.993Z,7.80
2023-05-17T16:39:55.798Z,6.65
2023-05-17T16:44:59.842Z,8.23
2023-05-17T16:50:02.689Z,7.28
2023-05-17T16:55:06.117Z,6.53
2023-05-17T17:00:12.216Z,6.60
2023-05-17T17:05:14.913Z,9.18
2023-05-17T17:10:17.721Z,5.90
2023-05-17T17:15:21.834Z,7.88
2023-05-17T17:20:24.996Z,6.05
2023-05-17T17:30:32.237Z,7.22
2023-05-17T17:35:35.066Z,5.82
2023-05-17T17:40:37.710Z,8.60
2023-05-17T17:45:41.666Z,5.20
2023-05-17T17:50:44.314Z,6.65
2023-05-17T17:55:46.993Z,6.07
2023-05-17T18:00:52.184Z,6.85
2023-05-17T18:05:54.909Z,9.23
2023-05-17T18:10:57.588Z,6.35
2023-05-17T18:16:01.597Z,8.23
2023-05-17T18:21:04.554Z,8.80
2023-05-17T18:26:07.532Z,3.70
2023-05-17T18:31:11.801Z,6.82
2023-05-17T18:36:14.440Z,8.05
2023-05-17T18:41:17.033Z,8.07
2023-05-17T18:46:21.457Z,5.70
2023-05-17T18:51:24.722Z,7.63
2023-05-17T18:56:28.687Z,7.68
2023-05-17T19:01:32.767Z,6.93
2023-05-17T19:06:35.390Z,11.02
2023-05-17T19:11:38.077Z,6.97
2023-05-17T19:16:42.198Z,7.53
2023-05-17T19:21:44.936Z,6.97
2023-05-17T19:26:47.720Z,4.67
2023-05-17T19:31:52.068Z,8.30
2023-05-17T19:36:54.773Z,4.85
2023-05-17T19:41:57.518Z,7.40
2023-05-17T19:47:01.674Z,7.37
2023-05-17T19:52:04.640Z,11.15
2023-05-17T19:57:07.982Z,6.57
2023-05-17T20:02:12.061Z,5.18
2023-05-17T20:07:15.281Z,5.22
2023-05-17T20:12:17.950Z,8.07
2023-05-17T20:17:21.982Z,5.85
2023-05-17T20:22:25.092Z,10.50
2023-05-17T20:27:27.772Z,6.85
2023-05-17T20:32:31.993Z,10.23
2023-05-17T20:37:34.851Z,7.57
2023-05-17T20:42:40.290Z,6.00
2023-05-17T20:47:44.476Z,5.68
2023-05-17T20:52:47.159Z,8.35
2023-05-17T20:57:50.862Z,5.00
2023-05-17T21:02:54.992Z,10.77
2023-05-17T21:07:59.745Z,7.93
2023-05-17T21:13:02.504Z,9.82
2023-05-17T21:18:06.842Z,9.00
2023-05-17T21:23:10.527Z,5.20
2023-05-17T21:33:16.998Z,6.40
2023-05-17T21:38:19.774Z,5.57
2023-05-17T21:43:22.543Z,6.43
2023-05-17T21:48:26.635Z,7.73
2023-05-17T21:53:29.312Z,9.48
2023-05-17T21:58:32.532Z,7.05
2023-05-17T22:03:36.783Z,9.52
2023-05-17T22:08:42.262Z,7.00
2023-05-17T22:13:45.991Z,7.80
2023-05-17T22:18:52.397Z,4.28
2023-05-17T22:23:56.557Z,9.52
2023-05-17T22:28:59.214Z,7.40
2023-05-17T22:34:03.205Z,4.45
2023-05-17T22:39:05.841Z,9.65
2023-05-17T22:44:08.546Z,12.90
2023-05-17T22:49:12.519Z,5.73
2023-05-17T22:54:15.124Z,6.88
2023-05-17T22:59:17.714Z,6.45
2023-05-17T23:04:26.286Z,7.43
2023-05-17T23:09:29.963Z,6.93
2023-05-17T23:14:33.005Z,6.43
2023-05-17T23:19:37.136Z,7.90
2023-05-17T23:24:39.872Z,7.05
2023-05-17T23:29:42.465Z,8.27
2023-05-17T23:34:47.290Z,9.48
2023-05-17T23:39:49.989Z,10.30
2023-05-17T23:44:52.803Z,7.72
2023-05-17T23:49:57.540Z,9.03
2023-05-17T23:55:00.196Z,11.05
